Terminal Aerodrome Forecast
Issued by NWS Dallas/Fort Worth, TX

Home | Current Version | Previous Version | Text Only | Print | Product List | Glossary On
Versions: 1 2 3 4 5 6 7 8 9 10 11 12 13 14 15 16 17 18 19 20 21 22 23 24 25 26 27 28 29
000
FTUS44 KFWD 282050 AAA
TAFACT
TAF AMD
KACT 282050Z 2820/2918 11011KT P6SM SKC
     FM290100 12010KT P6SM VCSH BKN040
     FM290300 14010KT P6SM VCTS BKN030CB
     FM290600 16014KT P6SM VCSH BKN015
     FM290900 17013KT P6SM OVC009
     FM291600 15017KT P6SM SCT015 BKN030=

USA.gov is the U.S. government's official web portal to all federal, state and local government web resources and services.